sensor_id;sensor_type;location;lat;lon;timestamp;pressure;altitude;pressure_sealevel;temperature;humidity
43119;BME280;28729;49.838;8.650;2024-03-25T00:00:18;98977.56;;;7.86;74.87
43119;BME280;28729;49.838;8.650;2024-03-25T00:04:32;98984.47;;;7.89;74.26
43119;BME280;28729;49.838;8.650;2024-03-25T00:08:35;98977.56;;;7.86;74.34
43119;BME280;28729;49.838;8.650;2024-03-25T00:12:36;98984.28;;;7.79;75.32
43119;BME280;28729;49.838;8.650;2024-03-25T00:16:37;98987.31;;;7.77;75.70
43119;BME280;28729;49.838;8.650;2024-03-25T00:20:38;98990.28;;;7.75;75.43
43119;BME280;28729;49.838;8.650;2024-03-25T00:24:40;98995.78;;;7.75;75.53
43119;BME280;28729;49.838;8.650;2024-03-25T00:28:47;98988.63;;;7.74;75.20
43119;BME280;28729;49.838;8.650;2024-03-25T00:32:49;98986.56;;;7.65;75.02
43119;BME280;28729;49.838;8.650;2024-03-25T00:36:53;98989.31;;;7.65;74.21
43119;BME280;28729;49.838;8.650;2024-03-25T00:40:54;98992.31;;;7.63;74.28
43119;BME280;28729;49.838;8.650;2024-03-25T00:44:56;98980.19;;;7.59;73.33
43119;BME280;28729;49.838;8.650;2024-03-25T00:48:56;98989.41;;;7.53;73.62
43119;BME280;28729;49.838;8.650;2024-03-25T00:53:01;98988.81;;;7.51;73.00
43119;BME280;28729;49.838;8.650;2024-03-25T00:57:02;98989.81;;;7.45;73.51
43119;BME280;28729;49.838;8.650;2024-03-25T01:01:07;98996.63;;;7.42;73.76
43119;BME280;28729;49.838;8.650;2024-03-25T01:05:09;98991.91;;;7.38;74.42
43119;BME280;28729;49.838;8.650;2024-03-25T01:09:10;98989.06;;;7.33;74.80
43119;BME280;28729;49.838;8.650;2024-03-25T01:13:12;98991.00;;;7.32;74.25
43119;BME280;28729;49.838;8.650;2024-03-25T01:17:13;98979.44;;;7.30;74.39
43119;BME280;28729;49.838;8.650;2024-03-25T01:21:14;98985.50;;;7.32;73.81
43119;BME280;28729;49.838;8.650;2024-03-25T01:25:16;98981.09;;;7.31;74.18
43119;BME280;28729;49.838;8.650;2024-03-25T01:29:26;98994.97;;;7.24;74.74
43119;BME280;28729;49.838;8.650;2024-03-25T01:33:28;98991.63;;;7.22;73.80
43119;BME280;28729;49.838;8.650;2024-03-25T01:37:29;98989.97;;;7.21;74.20
43119;BME280;28729;49.838;8.650;2024-03-25T01:41:33;98989.38;;;7.19;74.44
43119;BME280;28729;49.838;8.650;2024-03-25T01:45:35;98983.41;;;7.22;74.32
43119;BME280;28729;49.838;8.650;2024-03-25T01:49:38;98980.94;;;7.21;74.05
43119;BME280;28729;49.838;8.650;2024-03-25T01:53:40;98978.19;;;7.21;74.21
43119;BME280;28729;49.838;8.650;2024-03-25T01:57:43;98977.09;;;7.22;74.09
43119;BME280;28729;49.838;8.650;2024-03-25T02:01:46;98972.13;;;7.19;74.34
43119;BME280;28729;49.838;8.650;2024-03-25T02:05:53;98973.94;;;7.13;74.92
43119;BME280;28729;49.838;8.650;2024-03-25T02:09:57;98971.88;;;7.03;75.37
43119;BME280;28729;49.838;8.650;2024-03-25T02:13:59;98976.91;;;6.95;76.01
43119;BME280;28729;49.838;8.650;2024-03-25T02:18:00;98979.06;;;6.93;76.84
43119;BME280;28729;49.838;8.650;2024-03-25T02:22:04;98980.91;;;6.87;77.38
43119;BME280;28729;49.838;8.650;2024-03-25T02:26:05;98979.22;;;6.86;77.52
43119;BME280;28729;49.838;8.650;2024-03-25T02:30:08;98983.28;;;6.83;78.04
43119;BME280;28729;49.838;8.650;2024-03-25T02:34:13;98988.53;;;6.85;78.54
43119;BME280;28729;49.838;8.650;2024-03-25T02:38:19;98987.09;;;6.82;78.65
43119;BME280;28729;49.838;8.650;2024-03-25T02:42:21;98983.28;;;6.83;78.63
43119;BME280;28729;49.838;8.650;2024-03-25T02:46:23;98983.44;;;6.77;78.96
43119;BME280;28729;49.838;8.650;2024-03-25T02:50:27;98984.66;;;6.69;79.02
43119;BME280;28729;49.838;8.650;2024-03-25T02:54:28;98973.63;;;6.64;79.52
43119;BME280;28729;49.838;8.650;2024-03-25T02:58:30;98977.41;;;6.63;79.37
43119;BME280;28729;49.838;8.650;2024-03-25T03:02:39;98974.34;;;6.59;79.47
43119;BME280;28729;49.838;8.650;2024-03-25T03:06:43;98973.28;;;6.60;79.25
43119;BME280;28729;49.838;8.650;2024-03-25T03:10:48;98984.09;;;6.67;79.13
43119;BME280;28729;49.838;8.650;2024-03-25T03:14:49;98979.16;;;6.69;79.30
43119;BME280;28729;49.838;8.650;2024-03-25T03:18:50;98975.13;;;6.72;79.21
43119;BME280;28729;49.838;8.650;2024-03-25T03:22:51;98985.72;;;6.68;79.30
43119;BME280;28729;49.838;8.650;2024-03-25T03:26:54;98987.88;;;6.66;79.70
43119;BME280;28729;49.838;8.650;2024-03-25T03:30:58;98982.31;;;6.61;79.89
43119;BME280;28729;49.838;8.650;2024-03-25T03:34:58;98984.72;;;6.57;80.06
43119;BME280;28729;49.838;8.650;2024-03-25T03:39:03;98979.13;;;6.52;80.23
43119;BME280;28729;49.838;8.650;2024-03-25T03:43:03;98979.56;;;6.32;80.81
43119;BME280;28729;49.838;8.650;2024-03-25T03:47:07;98975.81;;;6.10;81.89
43119;BME280;28729;49.838;8.650;2024-03-25T03:51:09;98987.59;;;5.99;82.45
43119;BME280;28729;49.838;8.650;2024-03-25T03:55:10;98985.69;;;5.87;83.31
43119;BME280;28729;49.838;8.650;2024-03-25T03:59:11;98980.00;;;5.77;83.83
43119;BME280;28729;49.838;8.650;2024-03-25T04:03:13;98985.00;;;5.68;84.75
43119;BME280;28729;49.838;8.650;2024-03-25T04:07:14;98989.25;;;5.64;85.19
43119;BME280;28729;49.838;8.650;2024-03-25T04:11:21;98987.47;;;5.58;86.20
43119;BME280;28729;49.838;8.650;2024-03-25T04:15:22;98972.63;;;5.54;87.00
43119;BME280;28729;49.838;8.650;2024-03-25T04:19:24;98971.19;;;5.52;87.21
43119;BME280;28729;49.838;8.650;2024-03-25T04:23:28;98981.53;;;5.49;87.28
43119;BME280;28729;49.838;8.650;2024-03-25T04:27:28;98976.78;;;5.45;87.73
43119;BME280;28729;49.838;8.650;2024-03-25T04:31:31;98981.03;;;5.41;88.52
43119;BME280;28729;49.838;8.650;2024-03-25T04:35:32;98982.13;;;5.28;89.76
43119;BME280;28729;49.838;8.650;2024-03-25T04:39:33;98982.34;;;5.15;90.53
43119;BME280;28729;49.838;8.650;2024-03-25T04:43:35;98979.34;;;5.05;92.17
43119;BME280;28729;49.838;8.650;2024-03-25T04:47:37;98985.13;;;4.96;93.63
43119;BME280;28729;49.838;8.650;2024-03-25T04:51:49;98995.53;;;4.88;94.49
43119;BME280;28729;49.838;8.650;2024-03-25T04:55:53;98988.19;;;4.76;96.62
43119;BME280;28729;49.838;8.650;2024-03-25T04:59:55;98998.91;;;4.60;97.85
43119;BME280;28729;49.838;8.650;2024-03-25T05:03:56;99001.44;;;4.43;98.59
43119;BME280;28729;49.838;8.650;2024-03-25T05:07:57;99006.81;;;4.31;100.00
43119;BME280;28729;49.838;8.650;2024-03-25T05:12:05;99005.47;;;4.22;100.00
43119;BME280;28729;49.838;8.650;2024-03-25T05:16:06;99010.78;;;4.17;100.00
43119;BME280;28729;49.838;8.650;2024-03-25T05:20:07;99010.84;;;4.10;100.00
43119;BME280;28729;49.838;8.650;2024-03-25T05:24:11;99005.47;;;4.03;100.00
43119;BME280;28729;49.838;8.650;2024-03-25T05:28:12;99015.31;;;4.04;100.00
43119;BME280;28729;49.838;8.650;2024-03-25T05:32:26;99022.06;;;4.02;100.00
43119;BME280;28729;49.838;8.650;2024-03-25T05:36:29;99030.09;;;3.97;100.00
43119;BME280;28729;49.838;8.650;2024-03-25T05:40:30;99032.44;;;3.93;100.00
43119;BME280;28729;49.838;8.650;2024-03-25T05:44:38;99031.81;;;3.91;100.00
43119;BME280;28729;49.838;8.650;2024-03-25T05:48:39;99036.44;;;3.91;100.00
43119;BME280;28729;49.838;8.650;2024-03-25T05:52:40;99031.00;;;3.91;100.00
43119;BME280;28729;49.838;8.650;2024-03-25T05:56:46;99037.47;;;3.89;100.00
43119;BME280;28729;49.838;8.650;2024-03-25T06:00:47;99038.34;;;3.90;100.00
43119;BME280;28729;49.838;8.650;2024-03-25T06:04:50;99036.19;;;3.92;100.00
43119;BME280;28729;49.838;8.650;2024-03-25T06:08:52;99037.66;;;3.95;100.00
43119;BME280;28729;49.838;8.650;2024-03-25T06:12:57;99034.03;;;4.01;100.00
43119;BME280;28729;49.838;8.650;2024-03-25T06:16:59;99035.25;;;4.05;100.00
43119;BME280;28729;49.838;8.650;2024-03-25T06:20:59;99047.56;;;4.07;100.00
43119;BME280;28729;49.838;8.650;2024-03-25T06:25:01;99051.53;;;4.11;100.00
43119;BME280;28729;49.838;8.650;2024-03-25T06:29:03;99045.84;;;4.13;100.00
43119;BME280;28729;49.838;8.650;2024-03-25T06:33:04;99054.53;;;4.22;100.00
43119;BME280;28729;49.838;8.650;2024-03-25T06:37:24;99054.03;;;4.31;100.00
43119;BME280;28729;49.838;8.650;2024-03-25T06:41:26;99060.84;;;4.41;100.00
43119;BME280;28729;49.838;8.650;2024-03-25T06:45:26;99068.88;;;4.54;100.00
43119;BME280;28729;49.838;8.650;2024-03-25T06:49:29;99071.66;;;4.66;100.00
43119;BME280;28729;49.838;8.650;2024-03-25T06:53:34;99066.63;;;4.81;100.00
43119;BME280;28729;49.838;8.650;2024-03-25T06:57:35;99066.00;;;4.97;100.00
43119;BME280;28729;49.838;8.650;2024-03-25T07:01:36;99072.69;;;5.13;100.00
43119;BME280;28729;49.838;8.650;2024-03-25T07:05:37;99057.41;;;5.24;100.00
43119;BME280;28729;49.838;8.650;2024-03-25T07:09:39;99071.00;;;5.42;100.00
43119;BME280;28729;49.838;8.650;2024-03-25T07:13:40;99068.16;;;5.61;100.00
43119;BME280;28729;49.838;8.650;2024-03-25T07:17:42;99067.22;;;5.79;100.00
43119;BME280;28729;49.838;8.650;2024-03-25T07:21:43;99066.31;;;5.97;100.00
43119;BME280;28729;49.838;8.650;2024-03-25T07:25:43;99070.22;;;6.12;100.00
43119;BME280;28729;49.838;8.650;2024-03-25T07:29:44;99062.72;;;6.31;100.00
43119;BME280;28729;49.838;8.650;2024-03-25T07:33:45;99067.78;;;6.51;100.00
43119;BME280;28729;49.838;8.650;2024-03-25T07:37:46;99063.22;;;6.69;100.00
43119;BME280;28729;49.838;8.650;2024-03-25T07:41:47;99062.47;;;6.85;100.00
43119;BME280;28729;49.838;8.650;2024-03-25T07:45:50;99054.19;;;6.97;100.00
43119;BME280;28729;49.838;8.650;2024-03-25T07:49:58;99069.34;;;7.16;100.00
43119;BME280;28729;49.838;8.650;2024-03-25T07:54:03;99060.91;;;7.35;99.35
43119;BME280;28729;49.838;8.650;2024-03-25T07:58:10;99056.75;;;7.49;96.63
43119;BME280;28729;49.838;8.650;2024-03-25T08:02:11;99052.03;;;7.61;95.94
43119;BME280;28729;49.838;8.650;2024-03-25T08:06:14;99062.59;;;7.69;94.05
43119;BME280;28729;49.838;8.650;2024-03-25T08:10:15;99066.06;;;7.82;90.79
43119;BME280;28729;49.838;8.650;2024-03-25T08:14:17;99060.25;;;7.95;89.27
43119;BME280;28729;49.838;8.650;2024-03-25T08:18:20;99052.84;;;8.12;88.50
43119;BME280;28729;49.838;8.650;2024-03-25T08:22:21;99058.94;;;8.36;86.54
43119;BME280;28729;49.838;8.650;2024-03-25T08:26:26;99050.78;;;8.41;84.38
43119;BME280;28729;49.838;8.650;2024-03-25T08:30:27;99057.75;;;8.49;84.49
43119;BME280;28729;49.838;8.650;2024-03-25T08:34:32;99037.56;;;8.82;81.89
43119;BME280;28729;49.838;8.650;2024-03-25T08:38:33;99045.78;;;9.04;79.17
43119;BME280;28729;49.838;8.650;2024-03-25T08:42:36;99043.19;;;9.20;78.00
43119;BME280;28729;49.838;8.650;2024-03-25T08:46:37;99038.75;;;9.46;78.17
43119;BME280;28729;49.838;8.650;2024-03-25T08:50:40;99036.16;;;9.66;71.19
43119;BME280;28729;49.838;8.650;2024-03-25T08:54:46;99034.59;;;9.75;67.85
43119;BME280;28729;49.838;8.650;2024-03-25T08:58:48;99039.50;;;10.06;68.40
43119;BME280;28729;49.838;8.650;2024-03-25T09:02:49;99033.81;;;10.22;67.43
43119;BME280;28729;49.838;8.650;2024-03-25T09:06:51;99035.44;;;10.18;66.77
43119;BME280;28729;49.838;8.650;2024-03-25T09:10:52;99028.09;;;10.29;67.49
43119;BME280;28729;49.838;8.650;2024-03-25T09:15:07;99026.00;;;10.52;65.26
43119;BME280;28729;49.838;8.650;2024-03-25T09:19:13;99019.47;;;10.68;65.67
43119;BME280;28729;49.838;8.650;2024-03-25T09:23:14;99025.03;;;10.88;64.68
43119;BME280;28729;49.838;8.650;2024-03-25T09:27:15;99024.81;;;10.95;60.09
43119;BME280;28729;49.838;8.650;2024-03-25T09:31:16;99023.72;;;11.11;59.70
43119;BME280;28729;49.838;8.650;2024-03-25T09:35:18;99009.38;;;11.14;58.25
43119;BME280;28729;49.838;8.650;2024-03-25T09:39:51;99006.09;;;11.07;59.26
43119;BME280;28729;49.838;8.650;2024-03-25T09:44:25;98999.75;;;11.27;53.02
43119;BME280;28729;49.838;8.650;2024-03-25T09:48:30;98987.91;;;11.16;56.31
43119;BME280;28729;49.838;8.650;2024-03-25T09:52:33;98987.09;;;11.52;57.05
43119;BME280;28729;49.838;8.650;2024-03-25T09:56:38;98979.88;;;11.71;54.29
43119;BME280;28729;49.838;8.650;2024-03-25T10:00:40;98977.69;;;11.48;53.00
43119;BME280;28729;49.838;8.650;2024-03-25T10:04:48;98963.38;;;11.40;52.67
43119;BME280;28729;49.838;8.650;2024-03-25T10:08:53;98952.59;;;11.39;52.41
43119;BME280;28729;49.838;8.650;2024-03-25T10:12:57;98953.16;;;11.46;51.00
43119;BME280;28729;49.838;8.650;2024-03-25T10:17:05;98952.06;;;11.52;49.52
43119;BME280;28729;49.838;8.650;2024-03-25T10:21:19;98947.06;;;11.70;50.66
43119;BME280;28729;49.838;8.650;2024-03-25T10:25:29;98934.91;;;11.76;51.27
43119;BME280;28729;49.838;8.650;2024-03-25T10:29:47;98931.31;;;11.91;51.35
43119;BME280;28729;49.838;8.650;2024-03-25T10:33:48;98922.19;;;11.95;50.38
43119;BME280;28729;49.838;8.650;2024-03-25T10:37:49;98917.47;;;12.06;49.78
43119;BME280;28729;49.838;8.650;2024-03-25T10:41:56;98914.63;;;12.26;49.12
43119;BME280;28729;49.838;8.650;2024-03-25T10:46:00;98912.50;;;12.63;47.66
43119;BME280;28729;49.838;8.650;2024-03-25T10:50:34;98898.00;;;12.81;46.35
43119;BME280;28729;49.838;8.650;2024-03-25T10:54:35;98912.63;;;12.87;45.15
43119;BME280;28729;49.838;8.650;2024-03-25T10:58:38;98901.69;;;13.06;46.61
43119;BME280;28729;49.838;8.650;2024-03-25T11:02:41;98896.19;;;13.40;46.27
43119;BME280;28729;49.838;8.650;2024-03-25T11:06:42;98895.00;;;13.51;43.69
43119;BME280;28729;49.838;8.650;2024-03-25T11:10:45;98887.13;;;13.34;45.29
43119;BME280;28729;49.838;8.650;2024-03-25T11:14:56;98877.25;;;13.52;45.17
43119;BME280;28729;49.838;8.650;2024-03-25T11:19:02;98869.75;;;13.58;45.48
43119;BME280;28729;49.838;8.650;2024-03-25T11:23:11;98858.81;;;13.72;44.61
43119;BME280;28729;49.838;8.650;2024-03-25T11:27:22;98869.28;;;13.51;43.90
43119;BME280;28729;49.838;8.650;2024-03-25T11:31:26;98858.59;;;13.39;42.12
43119;BME280;28729;49.838;8.650;2024-03-25T11:35:29;98865.56;;;13.31;44.67
43119;BME280;28729;49.838;8.650;2024-03-25T11:39:30;98847.81;;;13.61;45.10
43119;BME280;28729;49.838;8.650;2024-03-25T11:43:30;98835.47;;;14.02;44.71
43119;BME280;28729;49.838;8.650;2024-03-25T11:47:31;98822.59;;;14.30;44.07
43119;BME280;28729;49.838;8.650;2024-03-25T11:51:35;98814.38;;;14.25;43.43
43119;BME280;28729;49.838;8.650;2024-03-25T11:55:39;98816.47;;;14.33;43.36
43119;BME280;28729;49.838;8.650;2024-03-25T11:59:40;98810.06;;;14.56;42.88
43119;BME280;28729;49.838;8.650;2024-03-25T12:03:42;98807.31;;;15.22;42.49
43119;BME280;28729;49.838;8.650;2024-03-25T12:07:44;98795.47;;;15.90;39.67
43119;BME280;28729;49.838;8.650;2024-03-25T12:11:45;98794.44;;;15.86;39.80
43119;BME280;28729;49.838;8.650;2024-03-25T12:15:49;98787.13;;;15.90;38.90
43119;BME280;28729;49.838;8.650;2024-03-25T12:20:04;98781.13;;;16.25;37.45
43119;BME280;28729;49.838;8.650;2024-03-25T12:24:07;98773.00;;;16.51;37.35
43119;BME280;28729;49.838;8.650;2024-03-25T12:28:09;98769.34;;;16.78;36.25
43119;BME280;28729;49.838;8.650;2024-03-25T12:32:11;98756.69;;;17.25;35.58
43119;BME280;28729;49.838;8.650;2024-03-25T12:36:22;98750.38;;;17.42;36.07
43119;BME280;28729;49.838;8.650;2024-03-25T12:40:28;98729.00;;;18.17;35.91
43119;BME280;28729;49.838;8.650;2024-03-25T12:44:32;98725.22;;;18.48;35.38
43119;BME280;28729;49.838;8.650;2024-03-25T12:48:44;98715.84;;;18.53;33.78
43119;BME280;28729;49.838;8.650;2024-03-25T12:53:19;98706.22;;;19.62;35.24
43119;BME280;28729;49.838;8.650;2024-03-25T12:57:38;98698.13;;;20.82;31.35
43119;BME280;28729;49.838;8.650;2024-03-25T13:01:38;98688.38;;;21.01;31.67
43119;BME280;28729;49.838;8.650;2024-03-25T13:05:48;98685.59;;;21.13;30.39
43119;BME280;28729;49.838;8.650;2024-03-25T13:09:51;98669.63;;;21.38;28.75
43119;BME280;28729;49.838;8.650;2024-03-25T13:13:53;98657.91;;;21.24;29.82
43119;BME280;28729;49.838;8.650;2024-03-25T13:18:01;98647.31;;;21.29;28.36
43119;BME280;28729;49.838;8.650;2024-03-25T13:22:04;98644.53;;;19.75;28.44
43119;BME280;28729;49.838;8.650;2024-03-25T13:26:06;98642.38;;;18.14;30.44
43119;BME280;28729;49.838;8.650;2024-03-25T13:30:08;98639.63;;;16.91;31.78
43119;BME280;28729;49.838;8.650;2024-03-25T13:34:09;98631.06;;;16.11;33.26
43119;BME280;28729;49.838;8.650;2024-03-25T13:38:10;98626.06;;;15.63;33.46
43119;BME280;28729;49.838;8.650;2024-03-25T13:42:11;98624.78;;;15.33;33.83
43119;BME280;28729;49.838;8.650;2024-03-25T13:46:12;98629.94;;;15.12;34.41
43119;BME280;28729;49.838;8.650;2024-03-25T13:50:13;98611.84;;;15.78;34.85
43119;BME280;28729;49.838;8.650;2024-03-25T13:54:16;98589.50;;;16.82;33.51
43119;BME280;28729;49.838;8.650;2024-03-25T13:58:17;98593.50;;;17.64;32.27
43119;BME280;28729;49.838;8.650;2024-03-25T14:02:19;98583.63;;;18.36;30.59
43119;BME280;28729;49.838;8.650;2024-03-25T14:06:19;98585.31;;;18.11;31.25
43119;BME280;28729;49.838;8.650;2024-03-25T14:10:23;98571.28;;;17.16;31.76
43119;BME280;28729;49.838;8.650;2024-03-25T14:14:24;98579.09;;;16.34;33.58
43119;BME280;28729;49.838;8.650;2024-03-25T14:18:24;98578.41;;;15.83;34.11
43119;BME280;28729;49.838;8.650;2024-03-25T14:22:27;98560.22;;;15.27;34.13
43119;BME280;28729;49.838;8.650;2024-03-25T14:26:30;98566.03;;;15.03;35.07
43119;BME280;28729;49.838;8.650;2024-03-25T14:30:31;98558.41;;;14.81;34.87
43119;BME280;28729;49.838;8.650;2024-03-25T14:34:32;98547.00;;;14.69;35.22
43119;BME280;28729;49.838;8.650;2024-03-25T14:38:33;98539.75;;;14.73;36.08
43119;BME280;28729;49.838;8.650;2024-03-25T14:42:34;98530.69;;;15.45;35.53
43119;BME280;28729;49.838;8.650;2024-03-25T14:46:35;98517.69;;;16.53;34.31
43119;BME280;28729;49.838;8.650;2024-03-25T14:50:37;98516.28;;;17.21;33.35
43119;BME280;28729;49.838;8.650;2024-03-25T14:54:38;98504.69;;;17.80;32.53
43119;BME280;28729;49.838;8.650;2024-03-25T14:58:41;98498.28;;;17.88;31.66
43119;BME280;28729;49.838;8.650;2024-03-25T15:02:41;98492.56;;;17.41;32.60
43119;BME280;28729;49.838;8.650;2024-03-25T15:06:50;98487.78;;;17.42;32.89
43119;BME280;28729;49.838;8.650;2024-03-25T15:10:50;98480.22;;;17.16;33.02
43119;BME280;28729;49.838;8.650;2024-03-25T15:14:51;98477.84;;;16.66;33.41
43119;BME280;28729;49.838;8.650;2024-03-25T15:18:52;98469.13;;;15.88;33.73
43119;BME280;28729;49.838;8.650;2024-03-25T15:22:54;98462.75;;;15.65;34.43
43119;BME280;28729;49.838;8.650;2024-03-25T15:26:54;98458.28;;;15.78;34.37
43119;BME280;28729;49.838;8.650;2024-03-25T15:30:56;98452.44;;;15.88;34.75
43119;BME280;28729;49.838;8.650;2024-03-25T15:34:58;98451.41;;;15.75;34.96
43119;BME280;28729;49.838;8.650;2024-03-25T15:39:03;98436.19;;;15.50;35.14
43119;BME280;28729;49.838;8.650;2024-03-25T15:43:08;98432.13;;;15.34;35.24
43119;BME280;28729;49.838;8.650;2024-03-25T15:47:08;98416.13;;;15.08;35.67
43119;BME280;28729;49.838;8.650;2024-03-25T15:51:11;98431.78;;;14.90;35.95
43119;BME280;28729;49.838;8.650;2024-03-25T15:55:13;98413.09;;;14.82;36.12
43119;BME280;28729;49.838;8.650;2024-03-25T15:59:15;98400.44;;;14.90;35.56
43119;BME280;28729;49.838;8.650;2024-03-25T16:03:15;98393.78;;;15.13;35.76
43119;BME280;28729;49.838;8.650;2024-03-25T16:07:23;98390.78;;;14.87;35.67
43119;BME280;28729;49.838;8.650;2024-03-25T16:11:25;98402.84;;;14.69;35.99
43119;BME280;28729;49.838;8.650;2024-03-25T16:15:27;98405.53;;;14.19;35.37
43119;BME280;28729;49.838;8.650;2024-03-25T16:19:28;98395.16;;;13.97;35.85
43119;BME280;28729;49.838;8.650;2024-03-25T16:23:31;98390.66;;;13.87;36.10
43119;BME280;28729;49.838;8.650;2024-03-25T16:27:32;98386.84;;;13.97;36.71
43119;BME280;28729;49.838;8.650;2024-03-25T16:31:32;98374.25;;;13.90;36.79
43119;BME280;28729;49.838;8.650;2024-03-25T16:35:34;98378.25;;;13.84;37.08
43119;BME280;28729;49.838;8.650;2024-03-25T16:39:37;98376.88;;;13.68;37.59
43119;BME280;28729;49.838;8.650;2024-03-25T16:43:40;98367.53;;;13.64;37.59
43119;BME280;28729;49.838;8.650;2024-03-25T16:47:40;98364.69;;;13.83;38.12
43119;BME280;28729;49.838;8.650;2024-03-25T16:51:41;98362.34;;;14.18;37.94
43119;BME280;28729;49.838;8.650;2024-03-25T16:55:43;98359.66;;;14.40;37.25
43119;BME280;28729;49.838;8.650;2024-03-25T16:59:48;98356.28;;;14.29;37.29
43119;BME280;28729;49.838;8.650;2024-03-25T17:03:49;98355.78;;;14.00;37.38
43119;BME280;28729;49.838;8.650;2024-03-25T17:07:53;98352.69;;;13.60;37.79
43119;BME280;28729;49.838;8.650;2024-03-25T17:11:55;98355.97;;;13.29;38.32
43119;BME280;28729;49.838;8.650;2024-03-25T17:15:55;98348.38;;;13.02;38.82
43119;BME280;28729;49.838;8.650;2024-03-25T17:19:56;98351.31;;;12.73;38.97
43119;BME280;28729;49.838;8.650;2024-03-25T17:23:58;98357.09;;;12.39;40.67
43119;BME280;28729;49.838;8.650;2024-03-25T17:28:00;98350.44;;;11.97;41.06
43119;BME280;28729;49.838;8.650;2024-03-25T17:32:01;98353.59;;;11.61;41.75
43119;BME280;28729;49.838;8.650;2024-03-25T17:36:03;98352.78;;;11.31;42.90
43119;BME280;28729;49.838;8.650;2024-03-25T17:40:05;98347.56;;;10.95;43.53
43119;BME280;28729;49.838;8.650;2024-03-25T17:44:13;98345.59;;;10.62;44.70
43119;BME280;28729;49.838;8.650;2024-03-25T17:48:16;98344.97;;;10.31;45.94
43119;BME280;28729;49.838;8.650;2024-03-25T17:52:17;98337.66;;;10.06;46.69
43119;BME280;28729;49.838;8.650;2024-03-25T17:56:19;98337.75;;;9.75;47.54
43119;BME280;28729;49.838;8.650;2024-03-25T18:00:19;98330.69;;;9.48;48.17
43119;BME280;28729;49.838;8.650;2024-03-25T18:04:21;98342.56;;;9.28;48.48
43119;BME280;28729;49.838;8.650;2024-03-25T18:08:22;98338.47;;;9.05;48.66
43119;BME280;28729;49.838;8.650;2024-03-25T18:12:28;98341.78;;;8.87;49.63
43119;BME280;28729;49.838;8.650;2024-03-25T18:16:28;98329.41;;;8.74;50.34
43119;BME280;28729;49.838;8.650;2024-03-25T18:20:31;98334.59;;;8.55;51.14
43119;BME280;28729;49.838;8.650;2024-03-25T18:24:33;98326.03;;;8.36;51.75
43119;BME280;28729;49.838;8.650;2024-03-25T18:28:36;98318.03;;;8.19;52.00
43119;BME280;28729;49.838;8.650;2024-03-25T18:32:39;98318.56;;;8.06;53.01
43119;BME280;28729;49.838;8.650;2024-03-25T18:36:46;98317.69;;;7.95;53.20
43119;BME280;28729;49.838;8.650;2024-03-25T18:40:48;98325.06;;;7.85;53.14
43119;BME280;28729;49.838;8.650;2024-03-25T18:45:08;98311.03;;;7.71;54.17
43119;BME280;28729;49.838;8.650;2024-03-25T18:49:10;98309.59;;;7.58;54.17
43119;BME280;28729;49.838;8.650;2024-03-25T18:53:12;98298.59;;;7.48;54.21
43119;BME280;28729;49.838;8.650;2024-03-25T18:57:13;98298.28;;;7.39;55.03
43119;BME280;28729;49.838;8.650;2024-03-25T19:01:14;98290.28;;;7.33;55.06
43119;BME280;28729;49.838;8.650;2024-03-25T19:05:18;98288.91;;;7.30;54.70
43119;BME280;28729;49.838;8.650;2024-03-25T19:09:18;98297.94;;;7.30;54.48
43119;BME280;28729;49.838;8.650;2024-03-25T19:13:20;98289.47;;;7.32;55.13
43119;BME280;28729;49.838;8.650;2024-03-25T19:17:21;98278.81;;;7.36;55.18
43119;BME280;28729;49.838;8.650;2024-03-25T19:21:23;98268.91;;;7.29;54.93
43119;BME280;28729;49.838;8.650;2024-03-25T19:25:25;98271.38;;;7.26;55.22
43119;BME280;28729;49.838;8.650;2024-03-25T19:29:30;98272.44;;;7.25;55.45
43119;BME280;28729;49.838;8.650;2024-03-25T19:33:32;98271.03;;;7.22;55.24
43119;BME280;28729;49.838;8.650;2024-03-25T19:37:33;98256.81;;;7.20;55.45
43119;BME280;28729;49.838;8.650;2024-03-25T19:41:34;98254.59;;;7.17;55.27
43119;BME280;28729;49.838;8.650;2024-03-25T19:45:38;98245.53;;;7.17;56.00
43119;BME280;28729;49.838;8.650;2024-03-25T19:49:39;98247.44;;;7.16;56.36
43119;BME280;28729;49.838;8.650;2024-03-25T19:53:41;98247.97;;;7.13;55.72
43119;BME280;28729;49.838;8.650;2024-03-25T19:57:42;98250.72;;;7.13;56.41
43119;BME280;28729;49.838;8.650;2024-03-25T20:01:42;98241.69;;;7.13;56.57
43119;BME280;28729;49.838;8.650;2024-03-25T20:05:48;98236.75;;;7.10;56.85
43119;BME280;28729;49.838;8.650;2024-03-25T20:09:52;98243.59;;;7.12;57.02
43119;BME280;28729;49.838;8.650;2024-03-25T20:13:53;98233.75;;;7.11;57.17
43119;BME280;28729;49.838;8.650;2024-03-25T20:17:53;98228.25;;;7.06;56.73
43119;BME280;28729;49.838;8.650;2024-03-25T20:21:55;98228.19;;;7.01;57.12
43119;BME280;28729;49.838;8.650;2024-03-25T20:25:57;98216.97;;;6.97;57.39
43119;BME280;28729;49.838;8.650;2024-03-25T20:29:59;98215.03;;;6.98;57.16
43119;BME280;28729;49.838;8.650;2024-03-25T20:34:00;98214.75;;;6.94;57.39
43119;BME280;28729;49.838;8.650;2024-03-25T20:38:01;98206.25;;;6.96;57.10
43119;BME280;28729;49.838;8.650;2024-03-25T20:42:04;98201.88;;;6.95;57.95
43119;BME280;28729;49.838;8.650;2024-03-25T20:46:05;98197.75;;;6.92;57.69
43119;BME280;28729;49.838;8.650;2024-03-25T20:50:07;98189.00;;;6.90;57.73
43119;BME280;28729;49.838;8.650;2024-03-25T20:54:12;98184.59;;;6.89;57.34
43119;BME280;28729;49.838;8.650;2024-03-25T20:58:16;98184.59;;;6.89;57.89
43119;BME280;28729;49.838;8.650;2024-03-25T21:02:16;98178.03;;;6.90;57.69
43119;BME280;28729;49.838;8.650;2024-03-25T21:06:17;98170.91;;;6.89;57.76
43119;BME280;28729;49.838;8.650;2024-03-25T21:10:19;98173.59;;;6.84;58.85
43119;BME280;28729;49.838;8.650;2024-03-25T21:14:21;98174.13;;;6.76;58.92
43119;BME280;28729;49.838;8.650;2024-03-25T21:18:23;98165.09;;;6.80;58.29
43119;BME280;28729;49.838;8.650;2024-03-25T21:22:24;98156.88;;;6.75;58.63
43119;BME280;28729;49.838;8.650;2024-03-25T21:26:25;98154.97;;;6.76;58.45
43119;BME280;28729;49.838;8.650;2024-03-25T21:30:30;98149.22;;;6.72;58.16
43119;BME280;28729;49.838;8.650;2024-03-25T21:34:33;98141.78;;;6.68;58.78